Allen, Nebraska
Current Conditions -  °F | °C
As of 11:55 AM on Saturday 22 Nov 2014 (Local Time) from KLCG Reporting Station
Scattered Clouds Scattered Clouds  
Wind Chill: 36°   Ceiling: Unl
Heat Index: 43°   Visibility: 10mi
Dew Point: 37°   Wind: 16mph
Humidity: 80%   Direction: 190°S
Pressure: 29.71"   Gusts: NA
Location:  42.42°N, 96.85°W
Report Text: KLCG 221755Z AUTO 19014KT 10SM SCT008 06/03 A2971 RMK AO2 T00620030 10062 20018
Loading
Personal Weather Stations






























Interactive Weather Map New forecast layout! Learn more

10-Day Weather Forecast

Advertisements
Track Severe Weather on mobile